createdAt,value
2024-01-24T00:01:00.353Z,13.27
2024-01-24T00:03:28.813Z,13.27
2024-01-24T00:05:56.433Z,13.32
2024-01-24T00:08:24.028Z,13.36
2024-01-24T00:10:51.827Z,13.37
2024-01-24T00:13:19.335Z,13.39
2024-01-24T00:15:47.256Z,13.42
2024-01-24T00:18:15.046Z,13.45
2024-01-24T00:20:42.681Z,13.49
2024-01-24T00:23:10.148Z,13.51
2024-01-24T00:25:37.708Z,13.51
2024-01-24T00:28:06.952Z,13.55
2024-01-24T00:30:34.660Z,13.58
2024-01-24T00:33:03.508Z,13.60
2024-01-24T00:35:31.015Z,13.64
2024-01-24T00:37:58.490Z,13.64
2024-01-24T00:40:26.023Z,13.67
2024-01-24T00:42:53.739Z,13.69
2024-01-24T00:45:22.670Z,13.71
2024-01-24T00:47:50.379Z,13.73
2024-01-24T00:50:18.025Z,13.76
2024-01-24T00:52:45.500Z,13.78
2024-01-24T00:55:13.194Z,13.79
2024-01-24T00:57:40.682Z,13.80
2024-01-24T01:00:09.924Z,13.80
2024-01-24T01:02:38.142Z,13.81
2024-01-24T01:05:06.668Z,13.80
2024-01-24T01:07:34.230Z,13.79
2024-01-24T01:10:01.803Z,13.78
2024-01-24T01:12:29.324Z,13.74
2024-01-24T01:14:56.878Z,13.72
2024-01-24T01:17:24.412Z,13.70
2024-01-24T01:19:51.845Z,13.64
2024-01-24T01:22:21.575Z,13.61
2024-01-24T01:24:49.339Z,13.56
2024-01-24T01:27:16.993Z,13.53
2024-01-24T01:29:44.601Z,13.50
2024-01-24T01:32:12.108Z,13.48
2024-01-24T01:34:39.961Z,13.48
2024-01-24T01:37:08.165Z,13.48
2024-01-24T01:39:35.814Z,13.47
2024-01-24T01:42:04.188Z,13.48
2024-01-24T01:44:37.514Z,13.49
2024-01-24T01:47:05.484Z,13.46
2024-01-24T01:49:33.113Z,13.45
2024-01-24T01:52:00.676Z,13.44
2024-01-24T01:54:29.169Z,13.42
2024-01-24T01:56:56.817Z,13.43
2024-01-24T01:59:26.449Z,13.39
2024-01-24T02:01:57.810Z,13.35
2024-01-24T02:04:27.752Z,13.26
2024-01-24T02:06:56.962Z,13.23
2024-01-24T02:09:25.726Z,13.17
2024-01-24T02:11:53.298Z,13.11
2024-01-24T02:14:20.872Z,13.04
2024-01-24T02:16:48.429Z,12.97
2024-01-24T02:19:16.122Z,12.91
2024-01-24T02:21:43.794Z,12.89
2024-01-24T02:24:12.561Z,12.88
2024-01-24T02:26:40.503Z,12.84
2024-01-24T02:29:08.148Z,12.78
2024-01-24T02:31:35.823Z,12.77
2024-01-24T02:34:04.165Z,12.74
2024-01-24T02:36:31.873Z,12.73
2024-01-24T02:38:59.470Z,12.76
2024-01-24T02:41:27.071Z,12.72
2024-01-24T02:43:54.577Z,12.71
2024-01-24T02:46:22.032Z,12.71
2024-01-24T02:48:49.749Z,12.67
2024-01-24T02:51:29.338Z,12.68
2024-01-24T02:53:57.374Z,12.66
2024-01-24T02:56:24.931Z,12.67
2024-01-24T02:58:52.523Z,12.68
2024-01-24T03:01:20.180Z,12.66
2024-01-24T03:03:48.303Z,12.66
2024-01-24T03:06:16.937Z,12.65
2024-01-24T03:08:49.040Z,12.65
2024-01-24T03:11:17.868Z,12.64
2024-01-24T03:13:45.402Z,12.65
2024-01-24T03:16:13.112Z,12.66
2024-01-24T03:18:41.175Z,12.68
2024-01-24T03:21:17.121Z,12.70
2024-01-24T03:23:45.865Z,12.70
2024-01-24T03:26:17.643Z,12.68
2024-01-24T03:28:45.330Z,12.66
2024-01-24T03:31:13.354Z,12.67
2024-01-24T03:33:40.990Z,12.66
2024-01-24T03:36:08.959Z,12.67
2024-01-24T03:38:36.512Z,12.69
2024-01-24T03:41:04.125Z,12.68
2024-01-24T03:43:31.665Z,12.66
2024-01-24T03:46:01.164Z,12.63
2024-01-24T03:48:28.846Z,12.60
2024-01-24T03:50:56.389Z,12.61
2024-01-24T03:53:23.939Z,12.62
2024-01-24T03:55:52.382Z,12.62
2024-01-24T03:58:20.091Z,12.61
2024-01-24T04:00:47.748Z,12.64
2024-01-24T04:03:15.336Z,12.70
2024-01-24T04:05:42.829Z,12.71
2024-01-24T04:08:10.358Z,12.73
2024-01-24T04:10:37.924Z,12.72
2024-01-24T04:13:05.357Z,12.72
2024-01-24T04:15:33.118Z,12.73
2024-01-24T04:18:01.127Z,12.72
2024-01-24T04:20:29.953Z,12.72
2024-01-24T04:22:57.514Z,12.73
2024-01-24T04:25:25.042Z,12.71
2024-01-24T04:27:52.664Z,12.68
2024-01-24T04:30:20.489Z,12.70
2024-01-24T04:32:48.187Z,12.71
2024-01-24T04:35:15.954Z,12.71
2024-01-24T04:37:43.633Z,12.72
2024-01-24T04:40:13.009Z,12.72
2024-01-24T04:42:40.818Z,12.70
2024-01-24T04:45:11.613Z,12.68
2024-01-24T04:47:43.838Z,12.66
2024-01-24T04:50:12.674Z,12.66
2024-01-24T04:52:40.863Z,12.67
2024-01-24T04:55:13.297Z,12.67
2024-01-24T04:57:42.816Z,12.67
2024-01-24T05:00:13.432Z,12.66
2024-01-24T05:02:41.713Z,12.63
2024-01-24T05:05:09.659Z,12.62
2024-01-24T05:07:37.877Z,12.61
2024-01-24T05:10:06.137Z,12.60
2024-01-24T05:12:33.817Z,12.58
2024-01-24T05:15:01.475Z,12.57
2024-01-24T05:17:29.075Z,12.56
2024-01-24T05:19:56.577Z,12.55
2024-01-24T05:22:24.161Z,12.54
2024-01-24T05:24:52.212Z,12.53
2024-01-24T05:27:19.914Z,12.51
2024-01-24T05:29:48.566Z,12.51
2024-01-24T05:32:16.058Z,12.48
2024-01-24T05:34:43.613Z,12.50
2024-01-24T05:37:11.255Z,12.51
2024-01-24T05:39:38.767Z,12.53
2024-01-24T05:42:06.606Z,12.53
2024-01-24T05:44:34.241Z,12.55
2024-01-24T05:47:02.009Z,12.53
2024-01-24T05:49:29.620Z,12.51
2024-01-24T05:51:57.342Z,12.48
2024-01-24T05:54:24.864Z,12.46
2024-01-24T05:56:52.502Z,12.42
2024-01-24T05:59:20.004Z,12.44
2024-01-24T06:01:48.818Z,12.42
2024-01-24T06:04:16.618Z,12.42
2024-01-24T06:06:44.293Z,12.39
2024-01-24T06:09:11.883Z,12.37
2024-01-24T06:11:39.660Z,12.37
2024-01-24T06:14:07.177Z,12.36
2024-01-24T06:16:34.803Z,12.37
2024-01-24T06:19:02.474Z,12.34
2024-01-24T06:21:30.169Z,12.36
2024-01-24T06:23:57.737Z,12.33
2024-01-24T06:26:25.287Z,12.33
2024-01-24T06:28:53.048Z,12.30
2024-01-24T06:31:20.653Z,12.31
2024-01-24T06:33:48.350Z,12.30
2024-01-24T06:36:18.806Z,12.28
2024-01-24T06:38:46.470Z,12.28
2024-01-24T06:41:14.355Z,12.27
2024-01-24T06:43:43.591Z,12.24
2024-01-24T06:46:12.557Z,12.22
2024-01-24T06:48:40.427Z,12.18
2024-01-24T06:51:13.210Z,12.15
2024-01-24T06:53:40.810Z,12.11
2024-01-24T06:56:09.762Z,12.09
2024-01-24T06:58:41.880Z,12.05
2024-01-24T07:01:09.469Z,12.00
2024-01-24T07:03:37.536Z,11.95
2024-01-24T07:06:06.873Z,11.93
2024-01-24T07:08:35.076Z,11.91
2024-01-24T07:11:03.492Z,11.88
2024-01-24T07:13:31.036Z,11.83
2024-01-24T07:15:58.676Z,11.78
2024-01-24T07:18:26.504Z,11.71
2024-01-24T07:20:54.253Z,11.68
2024-01-24T07:23:21.832Z,11.66
2024-01-24T07:25:49.368Z,11.61
2024-01-24T07:28:16.913Z,11.56
2024-01-24T07:30:44.701Z,11.50
2024-01-24T07:33:12.247Z,11.47
2024-01-24T07:35:41.302Z,11.43
2024-01-24T07:38:08.906Z,11.37
2024-01-24T07:40:38.229Z,11.32
2024-01-24T07:43:06.141Z,11.31
2024-01-24T07:45:33.760Z,11.29
2024-01-24T07:48:01.690Z,11.30
2024-01-24T07:50:29.349Z,11.29
2024-01-24T07:52:56.987Z,11.26
2024-01-24T07:55:32.622Z,11.22
2024-01-24T07:58:09.309Z,11.20
2024-01-24T08:00:37.181Z,11.19
2024-01-24T08:03:05.139Z,11.16
2024-01-24T08:05:33.491Z,11.15
2024-01-24T08:08:02.718Z,11.15
2024-01-24T08:10:30.243Z,11.14
2024-01-24T08:12:58.265Z,11.14
2024-01-24T08:15:26.556Z,11.11
2024-01-24T08:17:54.235Z,11.07
2024-01-24T08:20:23.187Z,11.06
2024-01-24T08:22:50.866Z,11.05
2024-01-24T08:25:18.393Z,11.02
2024-01-24T08:27:46.410Z,11.04
2024-01-24T08:30:14.210Z,11.03
2024-01-24T08:32:43.373Z,10.99
2024-01-24T08:35:11.271Z,11.01
2024-01-24T08:37:38.868Z,11.00
2024-01-24T08:40:09.765Z,10.97
2024-01-24T08:42:38.425Z,10.96
2024-01-24T08:45:06.568Z,10.97
2024-01-24T08:47:34.076Z,10.98
2024-01-24T08:50:02.038Z,10.98
2024-01-24T08:52:29.564Z,11.00
2024-01-24T08:54:57.727Z,10.98
2024-01-24T08:57:26.088Z,11.01
2024-01-24T08:59:54.970Z,11.01
2024-01-24T09:02:30.843Z,11.02
2024-01-24T09:04:59.162Z,11.02
2024-01-24T09:07:26.982Z,11.03
2024-01-24T09:09:54.668Z,11.02
2024-01-24T09:12:23.071Z,11.01
2024-01-24T09:14:50.786Z,11.03
2024-01-24T09:17:18.975Z,11.03
2024-01-24T09:19:48.976Z,11.06
2024-01-24T09:22:17.545Z,11.06
2024-01-24T09:24:45.400Z,11.09
2024-01-24T09:27:13.002Z,11.13
2024-01-24T09:29:40.591Z,11.14
2024-01-24T09:32:08.170Z,11.13
2024-01-24T09:34:35.839Z,11.14
2024-01-24T09:37:04.192Z,11.17
2024-01-24T09:39:31.721Z,11.20
2024-01-24T09:42:02.849Z,11.19
2024-01-24T09:44:34.205Z,11.22
2024-01-24T09:47:03.586Z,11.20
2024-01-24T09:49:33.127Z,11.21
2024-01-24T09:52:03.904Z,11.21
2024-01-24T09:54:33.975Z,11.22
2024-01-24T09:57:03.354Z,11.26
2024-01-24T09:59:30.905Z,11.26
2024-01-24T10:01:59.512Z,11.25
2024-01-24T10:04:27.699Z,11.27
2024-01-24T10:06:55.715Z,11.29
2024-01-24T10:09:23.357Z,11.30
2024-01-24T10:11:50.841Z,11.33
2024-01-24T10:14:19.657Z,11.36
2024-01-24T10:16:47.355Z,11.41
2024-01-24T10:19:15.388Z,11.43
2024-01-24T10:21:43.431Z,11.44
2024-01-24T10:24:12.550Z,11.46
2024-01-24T10:26:40.255Z,11.47
2024-01-24T10:29:08.966Z,11.48
2024-01-24T10:31:36.762Z,11.48
2024-01-24T10:34:05.395Z,11.51
2024-01-24T10:36:43.291Z,11.53
2024-01-24T10:39:15.711Z,11.56
2024-01-24T10:41:46.255Z,11.60
2024-01-24T10:44:18.284Z,11.63
2024-01-24T10:46:46.537Z,11.63
2024-01-24T10:49:15.234Z,11.61
2024-01-24T10:51:45.152Z,11.63
2024-01-24T10:54:17.096Z,11.64
2024-01-24T10:56:48.312Z,11.66
2024-01-24T10:59:17.062Z,11.67
2024-01-24T11:01:46.050Z,11.66
2024-01-24T11:04:23.089Z,11.65
2024-01-24T11:07:03.099Z,11.64
2024-01-24T11:10:10.387Z,11.64
2024-01-24T11:12:38.338Z,11.62
2024-01-24T11:15:07.251Z,11.62
2024-01-24T11:17:34.889Z,11.64
2024-01-24T11:20:11.115Z,11.67
2024-01-24T11:22:38.930Z,11.65
2024-01-24T11:25:11.903Z,11.64
2024-01-24T11:27:42.272Z,11.63
2024-01-24T11:30:12.809Z,11.63
2024-01-24T11:32:47.044Z,11.64
2024-01-24T11:35:34.853Z,11.63
2024-01-24T11:38:29.856Z,11.61
2024-01-24T11:41:24.502Z,11.61
2024-01-24T11:43:52.040Z,11.59
2024-01-24T11:46:23.839Z,11.59
2024-01-24T11:48:51.861Z,11.56
2024-01-24T11:51:19.463Z,11.52
2024-01-24T11:53:47.133Z,11.55
2024-01-24T11:56:15.955Z,11.58
2024-01-24T11:58:43.769Z,11.61
2024-01-24T12:01:12.790Z,11.60
2024-01-24T12:03:51.239Z,11.63
2024-01-24T12:06:20.265Z,11.65
2024-01-24T12:08:50.358Z,11.67
2024-01-24T12:11:19.550Z,11.71
2024-01-24T12:13:48.012Z,11.74
2024-01-24T12:16:15.764Z,11.77
2024-01-24T12:18:43.684Z,11.79
2024-01-24T12:21:12.523Z,11.85
2024-01-24T12:23:41.213Z,11.86
2024-01-24T12:26:09.007Z,11.88
2024-01-24T12:28:36.889Z,11.89
2024-01-24T12:31:06.282Z,11.91
2024-01-24T12:33:36.560Z,11.91
2024-01-24T12:36:06.520Z,11.92
2024-01-24T12:38:37.687Z,11.92
2024-01-24T12:41:05.858Z,11.93
2024-01-24T12:43:33.663Z,11.90
2024-01-24T12:46:08.921Z,11.91
2024-01-24T12:48:38.307Z,11.89
2024-01-24T12:51:07.658Z,11.87
2024-01-24T12:53:36.092Z,11.87
2024-01-24T12:56:04.196Z,11.87
2024-01-24T12:58:31.906Z,11.87
2024-01-24T13:00:59.800Z,11.84
2024-01-24T13:03:29.662Z,11.83
2024-01-24T13:05:58.566Z,11.80
2024-01-24T13:08:26.430Z,11.80
2024-01-24T13:10:56.019Z,11.79
2024-01-24T13:13:23.642Z,11.75
2024-01-24T13:15:54.468Z,11.73
2024-01-24T13:18:22.646Z,11.69
2024-01-24T13:20:50.385Z,11.68
2024-01-24T13:23:17.973Z,11.64
2024-01-24T13:25:45.545Z,11.64
2024-01-24T13:28:14.544Z,11.64
2024-01-24T13:30:42.421Z,11.62
2024-01-24T13:33:11.089Z,11.57
2024-01-24T13:35:38.984Z,11.57
2024-01-24T13:38:06.786Z,11.57
2024-01-24T13:40:34.515Z,11.59
2024-01-24T13:43:02.515Z,11.57
2024-01-24T13:45:30.278Z,11.53
2024-01-24T13:47:57.925Z,11.54
2024-01-24T13:50:25.866Z,11.52
2024-01-24T13:52:53.479Z,11.54
2024-01-24T13:55:21.072Z,11.52
2024-01-24T13:57:49.448Z,11.47
2024-01-24T14:00:17.875Z,11.48
2024-01-24T14:02:46.122Z,11.45
2024-01-24T14:05:13.881Z,11.39
2024-01-24T14:07:44.599Z,11.38
2024-01-24T14:10:13.206Z,11.37
2024-01-24T14:12:41.544Z,11.36
2024-01-24T14:15:19.603Z,11.34
2024-01-24T14:17:56.300Z,11.32
2024-01-24T14:20:23.981Z,11.30
2024-01-24T14:22:52.499Z,11.30
2024-01-24T14:25:20.906Z,11.30
2024-01-24T14:27:48.513Z,11.26
2024-01-24T14:30:16.171Z,11.24
2024-01-24T14:32:43.816Z,11.22
2024-01-24T14:35:17.746Z,11.20
2024-01-24T14:37:45.962Z,11.14
2024-01-24T14:40:16.298Z,11.15
2024-01-24T14:42:44.100Z,11.13
2024-01-24T14:45:11.886Z,11.09
2024-01-24T14:47:39.606Z,11.05
2024-01-24T14:50:11.299Z,11.03
2024-01-24T14:52:39.592Z,11.01
2024-01-24T14:55:08.978Z,10.97
2024-01-24T14:57:36.647Z,10.95
2024-01-24T15:00:11.720Z,10.95
2024-01-24T15:02:39.749Z,10.92
2024-01-24T15:05:09.540Z,10.89
2024-01-24T15:07:38.089Z,10.86
2024-01-24T15:10:08.280Z,10.83
2024-01-24T15:12:37.417Z,10.82
2024-01-24T15:15:06.779Z,10.80
2024-01-24T15:17:35.162Z,10.76
2024-01-24T15:20:04.526Z,10.75
2024-01-24T15:22:34.018Z,10.71
2024-01-24T15:25:04.625Z,10.72
2024-01-24T15:27:33.218Z,10.67
2024-01-24T15:30:00.981Z,10.65
2024-01-24T15:32:29.914Z,10.64
2024-01-24T15:34:57.744Z,10.62
2024-01-24T15:37:25.476Z,10.59
2024-01-24T15:39:53.020Z,10.57
2024-01-24T15:42:22.746Z,10.54
2024-01-24T15:44:50.308Z,10.51
2024-01-24T15:47:19.578Z,10.48
2024-01-24T15:49:47.252Z,10.46
2024-01-24T15:52:17.713Z,10.46
2024-01-24T15:54:46.866Z,10.46
2024-01-24T15:57:14.512Z,10.44
2024-01-24T15:59:42.128Z,10.42
2024-01-24T16:02:09.764Z,10.40
2024-01-24T16:04:38.358Z,10.39
2024-01-24T16:07:06.489Z,10.39
2024-01-24T16:09:34.259Z,10.36
2024-01-24T16:12:02.265Z,10.35
2024-01-24T16:14:30.314Z,10.32
2024-01-24T16:16:58.354Z,10.33
2024-01-24T16:19:26.168Z,10.31
2024-01-24T16:21:54.416Z,10.31
2024-01-24T16:24:22.312Z,10.30
2024-01-24T16:26:49.994Z,10.31
2024-01-24T16:29:18.641Z,10.30
2024-01-24T16:31:46.905Z,10.30
2024-01-24T16:34:14.638Z,10.29
2024-01-24T16:36:42.315Z,10.30
2024-01-24T16:39:10.809Z,10.31
2024-01-24T16:41:38.445Z,10.29
2024-01-24T16:44:05.955Z,10.27
2024-01-24T16:46:33.454Z,10.27
2024-01-24T16:49:00.993Z,10.26
2024-01-24T16:51:28.500Z,10.29
2024-01-24T16:53:56.119Z,10.27
2024-01-24T16:56:24.999Z,10.25
2024-01-24T16:58:52.560Z,10.24
2024-01-24T17:01:20.184Z,10.23
2024-01-24T17:03:50.316Z,10.24
2024-01-24T17:06:18.494Z,10.25
2024-01-24T17:08:45.979Z,10.22
2024-01-24T17:11:15.109Z,10.18
2024-01-24T17:13:42.586Z,10.16
2024-01-24T17:16:10.117Z,10.15
2024-01-24T17:18:39.250Z,10.12
2024-01-24T17:21:07.707Z,10.10
2024-01-24T17:23:35.399Z,10.10
2024-01-24T17:26:03.065Z,10.11
2024-01-24T17:28:30.590Z,10.10
2024-01-24T17:30:58.257Z,10.06
2024-01-24T17:33:26.369Z,10.05
2024-01-24T17:35:54.062Z,10.04
2024-01-24T17:38:21.696Z,10.03
2024-01-24T17:40:49.450Z,10.04
2024-01-24T17:43:17.838Z,10.04
2024-01-24T17:45:45.452Z,10.02
2024-01-24T17:48:13.755Z,10.02
2024-01-24T17:50:41.427Z,10.04
2024-01-24T17:53:11.510Z,10.02
2024-01-24T17:55:39.117Z,10.01
2024-01-24T17:58:06.941Z,10.05
2024-01-24T18:00:34.645Z,10.04
2024-01-24T18:03:02.943Z,10.02
2024-01-24T18:05:30.898Z,10.01
2024-01-24T18:07:58.570Z,10.01
2024-01-24T18:10:26.175Z,10.00
2024-01-24T18:12:57.525Z,10.00
2024-01-24T18:15:25.564Z,10.00
2024-01-24T18:17:55.897Z,9.99
2024-01-24T18:20:23.413Z,9.99
2024-01-24T18:22:50.947Z,9.97
2024-01-24T18:25:18.454Z,9.95
2024-01-24T18:27:45.888Z,9.94
2024-01-24T18:30:16.962Z,9.94
2024-01-24T18:32:46.176Z,9.91
2024-01-24T18:35:14.042Z,9.89
2024-01-24T18:37:42.168Z,9.88
2024-01-24T18:40:12.049Z,9.88
2024-01-24T18:42:42.673Z,9.87
2024-01-24T18:45:14.124Z,9.86
2024-01-24T18:47:41.885Z,9.83
2024-01-24T18:50:09.958Z,9.82
2024-01-24T18:52:37.600Z,9.80
2024-01-24T18:55:06.351Z,9.78
2024-01-24T18:57:34.030Z,9.76
2024-01-24T19:00:01.747Z,9.74
2024-01-24T19:02:29.511Z,9.72
2024-01-24T19:04:58.829Z,9.67
2024-01-24T19:07:26.631Z,9.65
2024-01-24T19:09:54.452Z,9.64
2024-01-24T19:12:22.032Z,9.62
2024-01-24T19:14:49.741Z,9.59
2024-01-24T19:17:17.453Z,9.56
2024-01-24T19:19:45.289Z,9.54
2024-01-24T19:22:13.698Z,9.53
2024-01-24T19:24:41.267Z,9.47
2024-01-24T19:27:08.897Z,9.41
2024-01-24T19:29:37.272Z,9.37
2024-01-24T19:32:05.392Z,9.33
2024-01-24T19:34:33.816Z,9.31
2024-01-24T19:37:01.312Z,9.28
2024-01-24T19:39:28.883Z,9.25
2024-01-24T19:41:56.711Z,9.19
2024-01-24T19:44:24.768Z,9.14
2024-01-24T19:46:55.808Z,9.11
2024-01-24T19:49:23.404Z,9.06
2024-01-24T19:51:53.221Z,9.02
2024-01-24T19:54:21.514Z,8.99
2024-01-24T19:56:49.035Z,8.93
2024-01-24T19:59:17.420Z,8.93
2024-01-24T20:01:44.954Z,8.90
2024-01-24T20:04:12.563Z,8.88
2024-01-24T20:06:40.183Z,8.82
2024-01-24T20:09:08.274Z,8.79
2024-01-24T20:11:35.755Z,8.76
2024-01-24T20:14:03.797Z,8.72
2024-01-24T20:16:31.391Z,8.70
2024-01-24T20:18:58.974Z,8.70
2024-01-24T20:21:26.567Z,8.68
2024-01-24T20:23:54.105Z,8.69
2024-01-24T20:26:23.393Z,8.67
2024-01-24T20:28:50.891Z,8.64
2024-01-24T20:31:18.832Z,8.63
2024-01-24T20:33:46.420Z,8.62
2024-01-24T20:36:14.160Z,8.62
2024-01-24T20:38:41.998Z,8.62
2024-01-24T20:41:11.136Z,8.60
2024-01-24T20:43:40.206Z,8.59
2024-01-24T20:46:10.055Z,8.60
2024-01-24T20:48:37.986Z,8.58
2024-01-24T20:51:05.803Z,8.57
2024-01-24T20:53:33.637Z,8.56
2024-01-24T20:56:01.114Z,8.53
2024-01-24T20:58:28.692Z,8.52
2024-01-24T21:00:56.504Z,8.49
2024-01-24T21:03:24.317Z,8.47
2024-01-24T21:05:53.001Z,8.44
2024-01-24T21:08:21.337Z,8.42
2024-01-24T21:10:55.368Z,8.41
2024-01-24T21:13:29.442Z,8.39
2024-01-24T21:15:57.246Z,8.39
2024-01-24T21:18:27.320Z,8.40
2024-01-24T21:20:55.194Z,8.39
2024-01-24T21:23:22.804Z,8.37
2024-01-24T21:25:50.405Z,8.36
2024-01-24T21:28:17.911Z,8.33
2024-01-24T21:30:45.577Z,8.31
2024-01-24T21:33:13.262Z,8.30
2024-01-24T21:35:41.889Z,8.33
2024-01-24T21:38:10.581Z,8.37
2024-01-24T21:40:38.115Z,8.36
2024-01-24T21:43:05.610Z,8.36
2024-01-24T21:45:33.123Z,8.37
2024-01-24T21:48:00.891Z,8.38
2024-01-24T21:50:29.114Z,8.38
2024-01-24T21:52:56.742Z,8.38
2024-01-24T21:55:24.204Z,8.40
2024-01-24T21:57:53.439Z,8.41
2024-01-24T22:00:21.077Z,8.41
2024-01-24T22:02:48.945Z,8.42
2024-01-24T22:05:18.999Z,8.45
2024-01-24T22:07:51.126Z,8.45
2024-01-24T22:10:19.099Z,8.50
2024-01-24T22:12:48.358Z,8.51
2024-01-24T22:15:16.006Z,8.52
2024-01-24T22:17:43.750Z,8.53
2024-01-24T22:20:11.813Z,8.54
2024-01-24T22:22:39.430Z,8.56
2024-01-24T22:25:08.926Z,8.58
2024-01-24T22:27:36.588Z,8.59
2024-01-24T22:30:05.958Z,8.61
2024-01-24T22:32:34.501Z,8.62
2024-01-24T22:35:02.780Z,8.65
2024-01-24T22:37:30.615Z,8.65
2024-01-24T22:39:58.282Z,8.68
2024-01-24T22:42:25.992Z,8.68
2024-01-24T22:44:53.667Z,8.68
2024-01-24T22:47:21.417Z,8.67
2024-01-24T22:49:49.251Z,8.67
2024-01-24T22:52:17.472Z,8.68
2024-01-24T22:54:45.385Z,8.68
2024-01-24T22:57:13.149Z,8.67
2024-01-24T22:59:40.666Z,8.69
2024-01-24T23:02:08.250Z,8.69
2024-01-24T23:04:35.907Z,8.68
2024-01-24T23:07:03.568Z,8.69
2024-01-24T23:09:31.179Z,8.69
2024-01-24T23:11:58.688Z,8.66
2024-01-24T23:14:26.304Z,8.66
2024-01-24T23:16:53.808Z,8.67
2024-01-24T23:19:21.395Z,8.65
2024-01-24T23:21:49.101Z,8.65
2024-01-24T23:24:17.400Z,8.67
2024-01-24T23:26:45.156Z,8.65
2024-01-24T23:29:15.169Z,8.63
2024-01-24T23:31:42.678Z,8.62
2024-01-24T23:34:11.698Z,8.62
2024-01-24T23:36:39.813Z,8.60
2024-01-24T23:39:08.056Z,8.57
2024-01-24T23:41:40.105Z,8.59
2024-01-24T23:44:07.940Z,8.56
2024-01-24T23:46:35.536Z,8.55
2024-01-24T23:49:04.385Z,8.53
2024-01-24T23:51:35.928Z,8.52
2024-01-24T23:54:04.418Z,8.52
2024-01-24T23:56:32.100Z,8.51
2024-01-24T23:58:59.604Z,8.49
